Stolt Shearwater — ZCRD9 — position and weather

sailwx.info

Track history (hours):
 
Tides and Currents Weather Stations Pressure Air Temp Water Temp Dewpoint Dewpoint Depression Visibility Wind Speed Wind Dir Waves Ship Positions

Stolt Shearwater

Last reported at 2016-May-24 16:33 UTC. Time now 2016-May-24 17:43 UTC.
Position N 54°13' E 000°14'.

Length 96 m; draft 5 m.

Type: Ship. MMSI: 319402000.

Date/timePositionNaut miles runAvg speedWind from/ knotsBaromVisibWave heightAir tempDewpointWater temp
2016-May-24 16:33N 54°13' E 000°14'1211.9
2016-May-24 15:34N 54°23' E 000°04'1111.3
2016-May-24 14:33N 54°33' W 000°07'1010.4
2016-May-24 13:34N 54°41' W 000°18'1010.1
2016-May-24 12:33N 54°45' W 000°35'10 9.5
2016-May-24 11:32N 54°45' W 000°51'7 6.6
2016-May-24 10:32N 54°42' W 001°01'0 0.0
2016-May-24 09:32N 54°42' W 001°01'0 0.1
2016-May-24 08:32N 54°42' W 001°01'0 0.0
2016-May-24 07:32N 54°42' W 001°01'0 0.0
2016-May-24 06:32N 54°42' W 001°01'0 0.0
2016-May-24 05:32N 54°42' W 001°01'0 0.0
2016-May-24 04:32N 54°42' W 001°01'0 0.0
2016-May-24 03:29N 54°42' W 001°01'0 0.0
2016-May-24 02:32N 54°42' W 001°01'0 0.0
2016-May-24 01:32N 54°42' W 001°01'0 0.0
2016-May-24 00:32N 54°42' W 001°01'0 0.0
2016-May-23 23:20N 54°42' W 001°01'0 0.0
2016-May-23 22:32N 54°42' W 001°01'0 0.0
2016-May-23 21:32N 54°42' W 001°01'0 0.1
2016-May-23 20:32N 54°42' W 001°01'0 0.0
2016-May-23 19:29N 54°42' W 001°01'0 0.0
2016-May-23 18:32N 54°42' W 001°01'0 0.0
2016-May-23 17:32N 54°42' W 001°01'0 0.0
2016-May-23 16:29N 54°42' W 001°01'0 0.0
2016-May-23 15:32N 54°42' W 001°01'0 0.0
2016-May-23 14:32N 54°42' W 001°01'0 0.0
2016-May-23 13:32N 54°42' W 001°01'0 0.0
2016-May-23 12:32N 54°42' W 001°01'0 0.0
2016-May-23 11:29N 54°42' W 001°01'0 0.0
2016-May-23 10:32N 54°42' W 001°01'0 0.0
2016-May-23 09:31N 54°42' W 001°01'2 0.1
2016-May-22 04:33N 54°41' W 001°04'2 1.9
2016-May-22 03:32N 54°42' W 001°01'0 0.0
2016-May-22 02:32N 54°42' W 001°01'0 0.1
2016-May-22 01:32N 54°42' W 001°01'0 0.1
2016-May-22 00:32N 54°42' W 001°01'0 0.1
2016-May-21 23:29N 54°42' W 001°01'0 0.0
2016-May-21 22:32N 54°42' W 001°01'0 0.0
2016-May-21 21:32N 54°42' W 001°01'0 0.0
2016-May-21 20:32N 54°42' W 001°01'0 0.0
2016-May-21 19:29N 54°42' W 001°01'0 0.1
2016-May-21 18:32N 54°42' W 001°01'0 0.0
2016-May-21 17:33N 54°42' W 001°01'0 0.0
2016-May-21 16:32N 54°42' W 001°01'0 0.0
2016-May-21 15:32N 54°42' W 001°01'0 0.0
2016-May-21 14:32N 54°42' W 001°01'0 0.0
2016-May-21 13:29N 54°42' W 001°01'0 0.0
2016-May-21 12:32N 54°42' W 001°01'0 0.1
2016-May-21 11:32N 54°42' W 001°01'0 0.0
2016-May-21 10:32N 54°42' W 001°01'0 0.0
2016-May-21 09:32N 54°42' W 001°01'0 0.0
2016-May-21 08:32N 54°42' W 001°01'0 0.0
2016-May-21 07:32N 54°42' W 001°01'0 0.0
2016-May-21 06:32N 54°42' W 001°01'0 0.1
2016-May-21 05:32N 54°42' W 001°01'0 0.0
2016-May-21 04:32N 54°42' W 001°01'0 0.1
2016-May-21 03:32N 54°42' W 001°01'0 0.1
2016-May-21 02:32N 54°42' W 001°01'0 0.1
2016-May-21 01:32N 54°42' W 001°01'0 0.0
2016-May-21 00:29N 54°42' W 001°01'0 0.0
2016-May-20 23:32N 54°42' W 001°01'0 0.0
2016-May-20 22:29N 54°42' W 001°01'0 0.0
2016-May-20 21:32N 54°42' W 001°01'0 0.0
2016-May-20 20:32N 54°42' W 001°01'4 4.6
2016-May-20 19:33N 54°41' W 000°54'1110.6
2016-May-20 18:33N 54°37' W 000°37'1010.1
2016-May-20 17:34N 54°31' W 000°22'1010.0
2016-May-20 16:33N 54°23' W 000°12'9 9.5
2016-May-20 15:33N 54°16' W 000°02'9 9.2
2016-May-20 14:33N 54°09' E 000°08'10 9.6
2016-May-20 13:34N 54°01' E 000°19'6711.0
2016-May-20 07:28N 53°07' E 001°24'8 8.8
2016-May-20 06:34N 53°00' E 001°31'7 7.4
2016-May-20 05:33N 52°54' E 001°39'8 7.7
2016-May-20 04:33N 52°49' E 001°49'9 9.1
2016-May-20 03:33N 52°45' E 002°02'1010.5
2016-May-20 02:33N 52°35' E 002°08'1411.1
2016-May-20 01:19N 52°22' E 002°15'44 8.5
2016-May-19 20:09N 51°39' E 002°25'5 8.3
2016-May-19 19:30N 51°34' E 002°20'8 7.9
2016-May-19 18:30N 51°28' E 002°12'8 7.8
2016-May-19 17:29N 51°21' E 002°07'7 8.2
2016-May-19 16:33N 51°14' E 002°03'9 8.8
2016-May-19 15:34N 51°09' E 001°50'9 9.2
2016-May-19 14:34N 51°03' E 001°39'1010.2
2016-May-19 13:33N 50°56' E 001°27'1110.3
2016-May-19 12:31N 50°46' E 001°22'49 9.9
2016-May-19 07:33N 50°23' E 000°14'1211.1
2016-May-19 06:29N 50°20' W 000°04'107 8.9
2016-May-18 18:28N 49°51' W 002°44'1010.8
2016-May-18 17:31N 49°47' W 002°59'1010.5
2016-May-18 16:33N 49°42' W 003°12'9310.3
2016-May-18 07:30N 48°55' W 005°16'9 9.7
2016-May-18 06:32N 48°50' W 005°28'  
2016-May-15 18:25N 39°04' W 009°57'1410.3
2016-May-15 17:06N 38°50' W 009°57'6 9.9
2016-May-15 16:27N 38°43' W 009°57'910.0
2016-May-15 15:30N 38°34' W 009°55'1010.0
2016-May-15 14:32N 38°25' W 009°52'1510.1
2016-May-15 13:04N 38°10' W 009°48'610.2
2016-May-15 12:29N 38°05' W 009°46'  
Track history (hours):
 
Tides and Currents Weather Stations Pressure Air Temp Water Temp Dewpoint Dewpoint Depression Visibility Wind Speed Wind Dir Waves Ship Positions

Stolt Shearwater

Last reported at 2016-May-24 16:33 UTC. Time now 2016-May-24 17:43 UTC.
Position N 54°13' E 000°14'.

Length 96 m; draft 5 m.

Type: Ship. MMSI: 319402000.

Date/timePositionNaut miles runAvg speedWind from/ knotsBaromVisibWave heightAir tempDewpointWater temp
2016-May-24 16:33N 54°13' E 000°14'1211.9
2016-May-24 15:34N 54°23' E 000°04'1111.3
2016-May-24 14:33N 54°33' W 000°07'1010.4
2016-May-24 13:34N 54°41' W 000°18'1010.1
2016-May-24 12:33N 54°45' W 000°35'10 9.5
2016-May-24 11:32N 54°45' W 000°51'7 6.6
2016-May-24 10:32N 54°42' W 001°01'0 0.0
2016-May-24 09:32N 54°42' W 001°01'0 0.1
2016-May-24 08:32N 54°42' W 001°01'0 0.0
2016-May-24 07:32N 54°42' W 001°01'0 0.0
2016-May-24 06:32N 54°42' W 001°01'0 0.0
2016-May-24 05:32N 54°42' W 001°01'0 0.0
2016-May-24 04:32N 54°42' W 001°01'0 0.0
2016-May-24 03:29N 54°42' W 001°01'0 0.0
2016-May-24 02:32N 54°42' W 001°01'0 0.0
2016-May-24 01:32N 54°42' W 001°01'0 0.0
2016-May-24 00:32N 54°42' W 001°01'0 0.0
2016-May-23 23:20N 54°42' W 001°01'0 0.0
2016-May-23 22:32N 54°42' W 001°01'0 0.0
2016-May-23 21:32N 54°42' W 001°01'0 0.1
2016-May-23 20:32N 54°42' W 001°01'0 0.0
2016-May-23 19:29N 54°42' W 001°01'0 0.0
2016-May-23 18:32N 54°42' W 001°01'0 0.0
2016-May-23 17:32N 54°42' W 001°01'0 0.0
2016-May-23 16:29N 54°42' W 001°01'0 0.0
2016-May-23 15:32N 54°42' W 001°01'0 0.0
2016-May-23 14:32N 54°42' W 001°01'0 0.0
2016-May-23 13:32N 54°42' W 001°01'0 0.0
2016-May-23 12:32N 54°42' W 001°01'0 0.0
2016-May-23 11:29N 54°42' W 001°01'0 0.0
2016-May-23 10:32N 54°42' W 001°01'0 0.0
2016-May-23 09:31N 54°42' W 001°01'2 0.1
2016-May-22 04:33N 54°41' W 001°04'2 1.9
2016-May-22 03:32N 54°42' W 001°01'0 0.0
2016-May-22 02:32N 54°42' W 001°01'0 0.1
2016-May-22 01:32N 54°42' W 001°01'0 0.1
2016-May-22 00:32N 54°42' W 001°01'0 0.1
2016-May-21 23:29N 54°42' W 001°01'0 0.0
2016-May-21 22:32N 54°42' W 001°01'0 0.0
2016-May-21 21:32N 54°42' W 001°01'0 0.0
2016-May-21 20:32N 54°42' W 001°01'0 0.0
2016-May-21 19:29N 54°42' W 001°01'0 0.1
2016-May-21 18:32N 54°42' W 001°01'0 0.0
2016-May-21 17:33N 54°42' W 001°01'0 0.0
2016-May-21 16:32N 54°42' W 001°01'0 0.0
2016-May-21 15:32N 54°42' W 001°01'0 0.0
2016-May-21 14:32N 54°42' W 001°01'0 0.0
2016-May-21 13:29N 54°42' W 001°01'0 0.0
2016-May-21 12:32N 54°42' W 001°01'0 0.1
2016-May-21 11:32N 54°42' W 001°01'0 0.0
2016-May-21 10:32N 54°42' W 001°01'0 0.0
2016-May-21 09:32N 54°42' W 001°01'0 0.0
2016-May-21 08:32N 54°42' W 001°01'0 0.0
2016-May-21 07:32N 54°42' W 001°01'0 0.0
2016-May-21 06:32N 54°42' W 001°01'0 0.1
2016-May-21 05:32N 54°42' W 001°01'0 0.0
2016-May-21 04:32N 54°42' W 001°01'0 0.1
2016-May-21 03:32N 54°42' W 001°01'0 0.1
2016-May-21 02:32N 54°42' W 001°01'0 0.1
2016-May-21 01:32N 54°42' W 001°01'0 0.0
2016-May-21 00:29N 54°42' W 001°01'0 0.0
2016-May-20 23:32N 54°42' W 001°01'0 0.0
2016-May-20 22:29N 54°42' W 001°01'0 0.0
2016-May-20 21:32N 54°42' W 001°01'0 0.0
2016-May-20 20:32N 54°42' W 001°01'4 4.6
2016-May-20 19:33N 54°41' W 000°54'1110.6
2016-May-20 18:33N 54°37' W 000°37'1010.1
2016-May-20 17:34N 54°31' W 000°22'1010.0
2016-May-20 16:33N 54°23' W 000°12'9 9.5
2016-May-20 15:33N 54°16' W 000°02'9 9.2
2016-May-20 14:33N 54°09' E 000°08'10 9.6
2016-May-20 13:34N 54°01' E 000°19'6711.0
2016-May-20 07:28N 53°07' E 001°24'8 8.8
2016-May-20 06:34N 53°00' E 001°31'7 7.4
2016-May-20 05:33N 52°54' E 001°39'8 7.7
2016-May-20 04:33N 52°49' E 001°49'9 9.1
2016-May-20 03:33N 52°45' E 002°02'1010.5
2016-May-20 02:33N 52°35' E 002°08'1411.1
2016-May-20 01:19N 52°22' E 002°15'44 8.5
2016-May-19 20:09N 51°39' E 002°25'5 8.3
2016-May-19 19:30N 51°34' E 002°20'8 7.9
2016-May-19 18:30N 51°28' E 002°12'8 7.8
2016-May-19 17:29N 51°21' E 002°07'7 8.2
2016-May-19 16:33N 51°14' E 002°03'9 8.8
2016-May-19 15:34N 51°09' E 001°50'9 9.2
2016-May-19 14:34N 51°03' E 001°39'1010.2
2016-May-19 13:33N 50°56' E 001°27'1110.3
2016-May-19 12:31N 50°46' E 001°22'49 9.9
2016-May-19 07:33N 50°23' E 000°14'1211.1
2016-May-19 06:29N 50°20' W 000°04'107 8.9
2016-May-18 18:28N 49°51' W 002°44'1010.8
2016-May-18 17:31N 49°47' W 002°59'1010.5
2016-May-18 16:33N 49°42' W 003°12'9310.3
2016-May-18 07:30N 48°55' W 005°16'9 9.7
2016-May-18 06:32N 48°50' W 005°28'  
2016-May-15 18:25N 39°04' W 009°57'1410.3
2016-May-15 17:06N 38°50' W 009°57'6 9.9
2016-May-15 16:27N 38°43' W 009°57'910.0
2016-May-15 15:30N 38°34' W 009°55'1010.0
2016-May-15 14:32N 38°25' W 009°52'1510.1
2016-May-15 13:04N 38°10' W 009°48'610.2
2016-May-15 12:29N 38°05' W 009°46'  

Dump ship's entire track history